Time;durP1;ratioP1;P1;durP2;ratioP2;P2;SDS_P1;SDS_P2;PMS_P1;PMS_P2;Temp;Humidity;BMP_temperature;BMP_pressure;BME280_temperature;BME280_humidity;BME280_pressure;Samples;Min_cycle;Max_cycle;Signal;HPM_P1;HPM_P2
2022/04/07 00:00:50;;;;;;;9.32;7.13;;;;;;;12.48;71.52;101017.66;5040812;28;20593;-79
2022/04/07 00:03:15;;;;;;;9.18;7.28;;;;;;;12.47;71.25;101002.78;5037543;28;20029;-79
2022/04/07 00:05:41;;;;;;;8.43;7.18;;;;;;;12.39;71.80;100991.91;5031922;28;20467;-79
2022/04/07 00:08:07;;;;;;;8.50;7.53;;;;;;;12.35;71.28;100974.25;5038846;28;20033;-80
2022/04/07 00:10:34;;;;;;;10.02;7.78;;;;;;;12.47;71.56;100988.81;5037347;28;20482;-79
2022/04/07 00:13:00;;;;;;;9.90;7.20;;;;;;;12.45;71.32;100991.34;5032642;28;20033;-79
2022/04/07 00:15:26;;;;;;;9.52;7.80;;;;;;;12.47;71.40;100981.84;5051860;28;20037;-80
2022/04/07 00:17:51;;;;;;;8.32;7.13;;;;;;;12.44;71.45;100986.91;5033208;28;20037;-80
2022/04/07 00:20:17;;;;;;;11.10;7.97;;;;;;;12.43;71.19;100982.50;5033442;28;20046;-80
2022/04/07 00:22:43;;;;;;;9.30;7.50;;;;;;;12.43;71.47;100977.25;5046205;28;20041;-80
2022/04/07 00:25:08;;;;;;;9.35;7.45;;;;;;;12.45;71.36;100959.03;5038414;28;20111;-80
2022/04/07 00:27:34;;;;;;;8.85;7.15;;;;;;;12.42;71.40;100964.97;5040341;28;20482;-79
2022/04/07 00:30:00;;;;;;;9.48;6.90;;;;;;;12.38;71.57;100960.41;5032637;28;20044;-79
2022/04/07 00:32:25;;;;;;;9.85;7.38;;;;;;;12.38;71.26;100949.94;5043764;28;20067;-79
2022/04/07 00:34:54;;;;;;;9.45;7.03;;;;;;;12.40;71.36;100951.84;5036133;28;20486;-80
2022/04/07 00:37:24;;;;;;;9.40;7.28;;;;;;;12.33;71.29;100938.34;5041425;28;20123;-79
2022/04/07 00:39:50;;;;;;;9.23;7.10;;;;;;;12.42;71.51;100949.25;5039840;28;20029;-80
2022/04/07 00:42:16;;;;;;;8.85;7.10;;;;;;;12.35;71.47;100941.94;5049803;28;20044;-80
2022/04/07 00:44:43;;;;;;;9.30;7.63;;;;;;;12.39;71.66;100939.53;5037466;28;20029;-79
2022/04/07 00:47:12;;;;;;;8.45;7.20;;;;;;;12.40;71.41;100940.44;5046407;28;20037;-79
2022/04/07 00:49:38;;;;;;;8.98;6.95;;;;;;;12.37;71.49;100927.19;5037995;28;20017;-80
2022/04/07 00:52:04;;;;;;;9.15;7.22;;;;;;;12.32;71.45;100923.44;5041889;28;20482;-80
2022/04/07 00:54:30;;;;;;;8.18;6.97;;;;;;;12.34;71.57;100927.97;5037498;28;20026;-80
2022/04/07 00:56:56;;;;;;;8.90;7.10;;;;;;;12.37;71.48;100925.47;5047010;28;20559;-77
2022/04/07 00:59:22;;;;;;;9.30;6.72;;;;;;;12.35;71.25;100916.63;5021049;28;20155;-79
2022/04/07 01:01:48;;;;;;;8.38;7.28;;;;;;;12.38;71.58;100921.13;5050404;28;20037;-79
2022/04/07 01:04:15;;;;;;;7.90;6.85;;;;;;;12.35;71.26;100916.63;5050376;28;20037;-79
2022/04/07 01:06:42;;;;;;;10.98;6.97;;;;;;;12.35;71.35;100906.16;5051313;28;20515;-80
2022/04/07 01:09:09;;;;;;;8.35;6.75;;;;;;;12.32;71.38;100905.09;5036933;28;20414;-80
2022/04/07 01:11:35;;;;;;;9.35;7.75;;;;;;;12.31;71.74;100893.75;5030179;28;20029;-79
2022/04/07 01:14:01;;;;;;;7.82;6.95;;;;;;;12.34;71.68;100893.91;5033301;28;20032;-79
2022/04/07 01:16:28;;;;;;;8.45;7.25;;;;;;;12.29;71.53;100882.28;5038627;28;20033;-80
2022/04/07 01:18:56;;;;;;;8.82;6.75;;;;;;;12.32;71.37;100890.31;5031013;28;20025;-80
2022/04/07 01:21:25;;;;;;;8.60;6.78;;;;;;;12.28;71.59;100884.88;5014019;28;20048;-80
2022/04/07 01:24:07;;;;;;;8.43;6.75;;;;;;;12.31;71.63;100883.28;5013210;28;20053;-80
2022/04/07 01:26:37;;;;;;;8.50;7.05;;;;;;;12.26;71.64;100865.56;5037147;28;20052;-80
2022/04/07 01:29:04;;;;;;;8.15;6.82;;;;;;;12.32;71.58;100878.91;5045864;28;20030;-80
2022/04/07 01:31:29;;;;;;;8.48;7.25;;;;;;;12.34;71.45;100875.59;5053209;28;20025;-81
2022/04/07 01:33:57;;;;;;;8.50;6.57;;;;;;;12.34;71.51;100879.91;5036386;28;20035;-81
2022/04/07 01:36:23;;;;;;;8.13;6.90;;;;;;;12.34;71.26;100880.81;5054677;28;20029;-80
2022/04/07 01:38:49;;;;;;;9.32;6.85;;;;;;;12.36;70.96;100878.25;5036325;28;20035;-81
2022/04/07 01:41:16;;;;;;;8.13;6.68;;;;;;;12.32;71.29;100877.22;5036575;28;20028;-81
2022/04/07 01:43:41;;;;;;;8.93;6.80;;;;;;;12.26;71.42;100876.03;5048871;28;20067;-80
2022/04/07 01:46:11;;;;;;;9.68;7.40;;;;;;;12.31;71.33;100879.75;5040863;28;20033;-80
2022/04/07 01:48:36;;;;;;;10.35;6.68;;;;;;;12.30;71.10;100868.41;5020958;28;20040;-80
2022/04/07 01:51:02;;;;;;;7.55;6.53;;;;;;;12.32;71.35;100871.06;5054170;28;20387;-80
2022/04/07 01:53:28;;;;;;;8.23;6.47;;;;;;;12.29;71.41;100879.69;5053769;28;20487;-81
2022/04/07 01:55:54;;;;;;;9.13;7.22;;;;;;;12.30;71.41;100884.13;5054206;28;20284;-81
2022/04/07 01:58:20;;;;;;;8.38;6.68;;;;;;;12.30;71.08;100880.59;5036015;28;20559;-80
2022/04/07 02:00:45;;;;;;;8.45;7.13;;;;;;;12.29;71.32;100881.41;5052016;28;20029;-80
2022/04/07 02:03:11;;;;;;;7.68;6.55;;;;;;;12.15;71.03;100855.47;5035906;28;20505;-80
2022/04/07 02:05:37;;;;;;;6.80;6.00;;;;;;;12.32;70.99;100865.81;5033899;28;20041;-80
2022/04/07 02:08:03;;;;;;;7.82;6.97;;;;;;;12.26;71.14;100861.22;5034194;28;20025;-80
2022/04/07 02:10:30;;;;;;;8.52;6.53;;;;;;;12.18;71.28;100857.31;5050707;28;20225;-80
2022/04/07 02:12:56;;;;;;;7.95;6.40;;;;;;;12.27;71.20;100872.56;5037521;28;20024;-80
2022/04/07 02:15:24;;;;;;;8.23;6.72;;;;;;;12.26;70.83;100852.47;5036899;28;20617;-80
2022/04/07 02:17:50;;;;;;;7.22;6.13;;;;;;;12.24;71.05;100849.78;5033783;28;20038;-80
2022/04/07 02:20:15;;;;;;;8.18;6.65;;;;;;;12.25;71.21;100861.13;5033460;28;20051;-80
2022/04/07 02:22:41;;;;;;;7.93;6.68;;;;;;;12.25;71.44;100862.03;5033889;28;20041;-80
2022/04/07 02:25:08;;;;;;;7.22;6.18;;;;;;;12.25;71.10;100855.91;5034736;28;20521;-80
2022/04/07 02:27:39;;;;;;;8.10;6.32;;;;;;;12.20;71.56;100848.72;5033456;28;20132;-80
2022/04/07 02:30:07;;;;;;;7.65;6.68;;;;;;;12.22;71.20;100852.31;5033666;28;20083;-79
2022/04/07 02:32:33;;;;;;;8.30;7.07;;;;;;;11.91;70.97;100788.81;5033891;28;20028;-80
2022/04/07 02:34:58;;;;;;;7.90;6.63;;;;;;;12.21;71.14;100849.59;5037080;28;20426;-81
2022/04/07 02:37:27;;;;;;;7.70;6.38;;;;;;;12.27;71.14;100843.78;5044972;28;20041;-81
2022/04/07 02:39:53;;;;;;;8.63;6.72;;;;;;;12.16;70.97;100831.06;5043307;28;20031;-81
2022/04/07 02:42:19;;;;;;;;;;;;;;;12.18;71.14;100837.28;5053031;28;20048;-80
2022/04/07 02:44:45;;;;;;;7.85;6.30;;;;;;;12.13;71.14;100827.41;5053170;28;19921;-80
2022/04/07 02:47:11;;;;;;;7.68;6.25;;;;;;;12.04;71.51;100813.88;5053490;28;20082;-80
2022/04/07 02:49:39;;;;;;;8.52;6.45;;;;;;;12.09;71.39;100821.13;5040395;28;20483;-80
2022/04/07 02:52:09;;;;;;;6.95;6.15;;;;;;;12.15;70.75;100817.88;5053172;28;20028;-80
2022/04/07 02:54:34;;;;;;;8.25;6.63;;;;;;;12.14;71.08;100809.16;5052301;28;20565;-80
2022/04/07 02:57:00;;;;;;;8.18;6.40;;;;;;;12.15;70.98;100805.72;5052620;28;20108;-80
2022/04/07 02:59:26;;;;;;;7.38;6.13;;;;;;;12.09;70.96;100799.28;5052408;28;20508;-80
2022/04/07 03:01:53;;;;;;;6.32;5.68;;;;;;;12.13;71.21;100799.50;5043050;28;20029;-80
2022/04/07 03:04:19;;;;;;;7.28;6.40;;;;;;;12.13;70.70;100794.28;5033786;28;20040;-80
2022/04/07 03:06:45;;;;;;;7.40;6.47;;;;;;;12.08;70.79;100793.16;5033004;28;20041;-80
2022/04/07 03:09:11;;;;;;;7.15;6.07;;;;;;;12.08;70.76;100794.88;5032662;28;20041;-80
2022/04/07 03:11:36;;;;;;;8.27;6.65;;;;;;;12.10;71.07;100793.22;5032858;28;20040;-80
2022/04/07 03:14:02;;;;;;;7.70;6.28;;;;;;;12.13;70.81;100799.50;5029410;28;20517;-80
2022/04/07 03:16:28;;;;;;;8.25;6.85;;;;;;;12.09;70.94;100794.06;5050993;28;20108;-79
2022/04/07 03:18:53;;;;;;;8.25;6.68;;;;;;;12.13;70.95;100802.13;5041266;28;20398;-80
2022/04/07 03:21:19;;;;;;;7.05;6.25;;;;;;;12.09;70.96;100802.81;5032248;28;20030;-80
2022/04/07 03:23:44;;;;;;;8.00;6.38;;;;;;;12.10;70.75;100807.19;5031094;28;20048;-78
2022/04/07 03:26:10;;;;;;;7.25;6.15;;;;;;;12.08;70.72;100797.50;5014362;28;20028;-80
2022/04/07 03:28:36;;;;;;;6.65;5.95;;;;;;;12.09;70.65;100791.44;5031484;28;20040;-80
2022/04/07 03:31:02;;;;;;;7.28;6.15;;;;;;;12.16;70.08;100786.56;5040795;28;20032;-80
2022/04/07 03:33:27;;;;;;;7.07;5.97;;;;;;;12.08;70.68;100774.81;5051047;28;20033;-81
2022/04/07 03:35:53;;;;;;;6.90;5.68;;;;;;;12.02;70.83;100761.44;5033935;28;20056;-80
2022/04/07 03:38:19;;;;;;;7.47;6.32;;;;;;;12.10;70.61;100765.31;5051637;28;20036;-81
2022/04/07 03:40:45;;;;;;;6.78;5.85;;;;;;;12.01;70.69;100743.97;5050959;28;20053;-80
2022/04/07 03:43:10;;;;;;;6.85;6.00;;;;;;;12.07;70.64;100753.84;5032852;28;20029;-80
2022/04/07 03:45:36;;;;;;;6.78;5.72;;;;;;;12.09;70.54;100755.69;5050413;28;20035;-80
2022/04/07 03:48:02;;;;;;;7.93;6.40;;;;;;;12.01;70.48;100731.75;5051795;28;20500;-80
2022/04/07 03:50:27;;;;;;;6.63;5.60;;;;;;;12.06;70.44;100734.59;5050638;28;20029;-80
2022/04/07 03:52:53;;;;;;;7.72;5.97;;;;;;;12.03;70.80;100734.47;5049591;28;20146;-80
2022/04/07 03:55:20;;;;;;;6.93;6.00;;;;;;;12.09;70.55;100729.50;5050885;28;20075;-79
2022/04/07 03:57:45;;;;;;;8.18;6.43;;;;;;;12.08;70.62;100718.97;5051012;28;20040;-79
2022/04/07 04:00:11;;;;;;;6.72;5.78;;;;;;;12.08;70.39;100714.63;5051394;28;20457;-80
2022/04/07 04:02:37;;;;;;;8.02;6.38;;;;;;;12.09;70.36;100713.81;5043389;28;20038;-79
2022/04/07 04:05:03;;;;;;;6.85;5.93;;;;;;;12.09;70.67;100705.06;5043666;28;20036;-79
2022/04/07 04:07:29;;;;;;;7.28;6.05;;;;;;;12.00;70.34;100692.41;5032869;28;20038;-80
2022/04/07 04:09:55;;;;;;;9.63;5.85;;;;;;;12.02;70.42;100696.00;5031762;28;20517;-78
2022/04/07 04:12:20;;;;;;;7.63;6.38;;;;;;;12.07;70.74;100696.25;5031658;28;20119;-79
2022/04/07 04:14:46;;;;;;;7.63;6.50;;;;;;;12.08;70.35;100687.56;5045291;28;20079;-79
2022/04/07 04:17:11;;;;;;;7.45;6.22;;;;;;;12.05;70.61;100669.09;5051613;28;20048;-78
2022/04/07 04:19:37;;;;;;;7.60;6.25;;;;;;;12.05;70.80;100669.09;5038669;28;20038;-79
2022/04/07 04:22:03;;;;;;;7.43;6.45;;;;;;;12.02;70.67;100656.75;5044560;28;20091;-79
2022/04/07 04:24:28;;;;;;;7.78;6.45;;;;;;;12.02;70.41;100643.66;5051016;28;20401;-80
2022/04/07 04:26:54;;;;;;;7.63;6.18;;;;;;;12.00;70.50;100648.84;5051870;28;20044;-79
2022/04/07 04:29:20;;;;;;;8.10;6.40;;;;;;;12.02;70.59;100654.13;5050896;28;20036;-79
2022/04/07 04:31:45;;;;;;;6.85;6.13;;;;;;;12.02;70.58;100646.28;5036257;28;20033;-79
2022/04/07 04:34:11;;;;;;;7.07;6.20;;;;;;;12.04;70.35;100654.22;5033308;28;20029;-79
2022/04/07 04:36:37;;;;;;;7.55;6.35;;;;;;;12.00;70.53;100655.78;5033084;28;20099;-80
2022/04/07 04:39:03;;;;;;;7.28;6.30;;;;;;;12.01;70.72;100660.22;5047674;28;20079;-80
2022/04/07 04:41:28;;;;;;;6.90;6.03;;;;;;;11.99;70.53;100654.91;5033213;28;20029;-80
2022/04/07 04:43:54;;;;;;;7.55;5.80;;;;;;;12.00;70.90;100671.47;5044112;28;20163;-80
2022/04/07 04:46:20;;;;;;;7.05;5.75;;;;;;;11.99;70.59;100677.56;5013662;28;20502;-81
2022/04/07 04:48:46;;;;;;;7.50;6.00;;;;;;;11.98;70.63;100674.06;5044866;28;20155;-80
2022/04/07 04:51:11;;;;;;;8.20;6.15;;;;;;;11.96;70.71;100665.22;5050080;28;20084;-80
2022/04/07 04:53:37;;;;;;;7.57;5.95;;;;;;;11.99;70.39;100664.47;5050721;28;20040;-81
2022/04/07 04:56:03;;;;;;;6.88;6.10;;;;;;;12.03;70.51;100671.66;5051074;28;20036;-81
2022/04/07 04:58:28;;;;;;;6.55;5.70;;;;;;;11.87;70.97;100637.69;5042496;28;20033;-82
2022/04/07 05:00:55;;;;;;;8.00;6.18;;;;;;;12.00;70.42;100658.41;5046651;28;20055;-80
2022/04/07 05:03:21;;;;;;;7.18;6.20;;;;;;;12.01;70.87;100653.25;5020032;28;20037;-80
2022/04/07 05:05:46;;;;;;;6.63;5.63;;;;;;;12.02;70.82;100675.06;5034626;28;20517;-81
2022/04/07 05:08:12;;;;;;;9.55;6.30;;;;;;;11.92;70.48;100675.50;5035770;28;20034;-80
2022/04/07 05:10:40;;;;;;;7.35;5.70;;;;;;;11.95;70.88;100689.59;5054918;28;20029;-80
2022/04/07 05:13:06;;;;;;;6.95;6.05;;;;;;;11.98;70.67;100701.91;5051377;28;20032;-79
2022/04/07 05:15:31;;;;;;;7.95;6.40;;;;;;;11.90;71.10;100695.47;5050725;28;20422;-79
2022/04/07 05:17:57;;;;;;;7.45;6.20;;;;;;;11.96;70.74;100691.41;5051131;28;20123;-80
2022/04/07 05:20:22;;;;;;;7.82;6.35;;;;;;;11.99;70.79;100677.56;5035068;28;20132;-80
2022/04/07 05:22:48;;;;;;;7.10;5.68;;;;;;;11.95;70.48;100657.31;5044614;28;20166;-80
2022/04/07 05:25:14;;;;;;;7.57;6.28;;;;;;;12.01;70.56;100660.22;5029489;28;20040;-79
2022/04/07 05:27:40;;;;;;;6.55;5.70;;;;;;;11.97;70.36;100651.31;5045002;28;20033;-79
2022/04/07 05:30:07;;;;;;;7.93;6.50;;;;;;;11.96;70.73;100644.28;5027178;28;20479;-80
2022/04/07 05:32:32;;;;;;;7.75;6.00;;;;;;;11.99;70.35;100635.69;5041458;28;20041;-80
2022/04/07 05:34:58;;;;;;;7.85;6.10;;;;;;;11.84;70.44;100609.69;5038592;28;21080;-80
2022/04/07 05:37:24;;;;;;;8.13;5.85;;;;;;;11.99;70.88;100630.44;5042914;28;20045;-80
2022/04/07 05:39:53;;;;;;;6.55;5.50;;;;;;;11.96;70.96;100622.47;5041213;28;20018;-79
2022/04/07 05:42:19;;;;;;;7.90;6.35;;;;;;;11.94;70.99;100608.44;5034361;28;20059;-80
2022/04/07 05:44:45;;;;;;;7.30;6.20;;;;;;;11.96;70.57;100604.16;5043820;28;20478;-79
2022/04/07 05:47:29;;;;;;;6.63;5.93;;;;;;;11.99;70.81;100602.56;5039268;28;20524;-79
2022/04/07 05:49:55;;;;;;;7.43;6.00;;;;;;;11.97;70.81;100585.88;5034592;28;20029;-79
2022/04/07 05:52:21;;;;;;;6.78;5.90;;;;;;;11.96;70.87;100578.00;5016206;28;20022;-80
2022/04/07 05:54:47;;;;;;;7.15;6.03;;;;;;;11.98;70.64;100585.06;5043133;28;20064;-80
2022/04/07 05:57:13;;;;;;;6.97;6.00;;;;;;;11.94;70.85;100577.91;5026809;28;20017;-79
2022/04/07 05:59:39;;;;;;;;;;;;;;;11.98;70.76;100602.47;5001850;28;20502;-81
2022/04/07 06:02:11;;;;;;;7.13;5.78;;;;;;;11.98;70.87;100608.63;5026723;28;19966;-80
2022/04/07 06:04:40;;;;;;;7.28;6.13;;;;;;;11.91;70.71;100603.91;5019056;28;20022;-81
2022/04/07 06:07:09;;;;;;;7.45;6.05;;;;;;;11.93;70.74;100606.63;5021969;28;20037;-79
2022/04/07 06:09:35;;;;;;;7.45;5.65;;;;;;;11.57;70.85;100542.16;5041816;28;20449;-79
2022/04/07 06:12:01;;;;;;;6.55;5.75;;;;;;;11.95;70.96;100603.25;5046788;28;20104;-80
2022/04/07 06:14:27;;;;;;;7.50;6.15;;;;;;;11.93;71.15;100604.88;5050496;28;20032;-80
2022/04/07 06:16:55;;;;;;;7.57;6.22;;;;;;;11.91;70.70;100610.88;5051895;28;20035;-81
2022/04/07 06:19:21;;;;;;;8.43;6.25;;;;;;;11.93;70.74;100615.34;5034236;28;20160;-81
2022/04/07 06:21:46;;;;;;;7.45;6.28;;;;;;;11.97;70.67;100617.28;4997715;28;20025;-81
2022/04/07 06:24:13;;;;;;;7.60;6.03;;;;;;;11.95;70.59;100618.06;4995613;28;20132;-80
2022/04/07 06:26:38;;;;;;;7.82;6.10;;;;;;;11.96;70.56;100612.00;5026042;28;20037;-80
2022/04/07 06:29:04;;;;;;;6.68;5.90;;;;;;;11.96;70.46;100622.47;5034079;28;20045;-81
2022/04/07 06:31:29;;;;;;;7.60;6.03;;;;;;;11.86;70.88;100628.97;5018715;28;20462;-80
2022/04/07 06:33:55;;;;;;;7.88;6.47;;;;;;;11.89;71.00;100628.22;5013168;28;20505;-80
2022/04/07 06:36:21;;;;;;;7.68;6.10;;;;;;;11.86;70.70;100631.56;5013769;28;20176;-80
2022/04/07 06:38:46;;;;;;;8.15;6.43;;;;;;;11.81;71.01;100625.25;5024247;28;20569;-81
2022/04/07 06:41:15;;;;;;;8.63;6.57;;;;;;;11.91;71.04;100623.97;5030930;28;20044;-81
2022/04/07 06:43:40;;;;;;;9.65;6.38;;;;;;;11.89;70.78;100612.53;5021908;28;20036;-80
2022/04/07 06:46:06;;;;;;;8.60;6.35;;;;;;;11.91;70.60;100613.50;5034249;28;20017;-81
2022/04/07 06:48:32;;;;;;;8.73;6.88;;;;;;;11.82;71.03;100596.50;5025430;28;20514;-81
2022/04/07 06:50:58;;;;;;;7.63;6.40;;;;;;;11.90;70.49;100610.00;5031153;28;20030;-80
2022/04/07 06:53:23;;;;;;;10.15;6.20;;;;;;;11.92;70.47;100616.19;5032718;28;20646;-81
2022/04/07 06:55:49;;;;;;;7.03;5.93;;;;;;;11.81;71.29;100607.81;5022309;28;20033;-80
2022/04/07 06:58:15;;;;;;;8.25;6.65;;;;;;;11.86;71.20;100602.78;5033367;28;20032;-80
2022/04/07 07:00:46;;;;;;;8.30;6.40;;;;;;;11.90;71.02;100596.03;5032962;28;20034;-79
2022/04/07 07:03:15;;;;;;;7.47;6.10;;;;;;;11.89;70.81;100581.13;5000223;28;20072;-79
2022/04/07 07:05:41;;;;;;;7.72;6.45;;;;;;;11.88;71.00;100574.09;5018057;28;20116;-80
2022/04/07 07:08:15;;;;;;;8.07;6.72;;;;;;;11.86;70.97;100583.59;5012971;28;20483;-80
2022/04/07 07:10:42;;;;;;;8.25;6.53;;;;;;;11.89;70.87;100589.88;5014738;28;20029;-81
2022/04/07 07:13:08;;;;;;;7.90;6.53;;;;;;;11.86;70.76;100592.31;5029593;28;20052;-80
2022/04/07 07:15:34;;;;;;;;;;;;;;;11.88;70.93;100579.31;5032620;28;20022;-80
2022/04/07 07:17:59;;;;;;;11.13;6.93;;;;;;;11.85;70.98;100564.34;5030556;28;19947;-80
2022/04/07 07:20:25;;;;;;;9.45;6.78;;;;;;;11.86;70.73;100567.91;5013995;28;20088;-78
2022/04/07 07:22:50;;;;;;;8.95;6.28;;;;;;;11.88;70.84;100556.69;5028810;28;20025;-78
2022/04/07 07:25:16;;;;;;;8.57;6.38;;;;;;;11.84;70.63;100533.81;5031589;28;20386;-78
2022/04/07 07:27:46;;;;;;;9.57;6.53;;;;;;;11.82;71.29;100525.00;5013779;28;20388;-78
2022/04/07 07:30:15;;;;;;;8.23;6.43;;;;;;;11.81;70.99;100518.88;5012486;28;20041;-78
2022/04/07 07:32:42;;;;;;;7.60;6.35;;;;;;;11.84;70.93;100509.38;5032416;28;20048;-79
2022/04/07 07:35:09;;;;;;;8.63;6.60;;;;;;;11.84;71.27;100502.41;5032786;28;20108;-80
2022/04/07 07:37:35;;;;;;;8.90;6.50;;;;;;;11.77;71.22;100480.31;5012678;28;20025;-79
2022/04/07 07:40:08;;;;;;;7.78;6.30;;;;;;;11.79;71.16;100473.44;5012846;28;20112;-80
2022/04/07 07:42:36;;;;;;;8.32;6.40;;;;;;;11.84;70.90;100472.75;5012542;28;20045;-80
2022/04/07 07:45:03;;;;;;;10.57;6.97;;;;;;;11.91;70.56;100469.59;5012185;28;20037;-80
2022/04/07 07:47:29;;;;;;;9.43;6.50;;;;;;;11.89;70.96;100455.53;4995024;28;20506;-80
2022/04/07 07:49:54;;;;;;;10.68;7.25;;;;;;;11.88;70.88;100448.50;5024450;28;20022;-79
2022/04/07 07:52:23;;;;;;;9.07;6.72;;;;;;;11.74;71.10;100420.00;4995144;28;20180;-80
2022/04/07 07:54:48;;;;;;;10.40;7.30;;;;;;;11.82;70.74;100442.16;4993665;28;20090;-80
2022/04/07 07:57:14;;;;;;;9.85;7.07;;;;;;;11.81;70.70;100448.25;5033230;28;20029;-80
2022/04/07 07:59:40;;;;;;;9.85;7.05;;;;;;;11.79;71.45;100446.38;5029373;28;20110;-80
2022/04/07 08:02:06;;;;;;;9.88;6.78;;;;;;;11.83;71.15;100448.28;5013847;28;20147;-80
2022/04/07 08:04:31;;;;;;;9.98;7.18;;;;;;;11.81;71.25;100443.00;5028585;28;20054;-80
2022/04/07 08:06:58;;;;;;;9.38;7.00;;;;;;;11.80;71.05;100425.50;5013592;28;20061;-80
2022/04/07 08:09:24;;;;;;;9.45;7.20;;;;;;;11.80;71.40;100441.19;5031165;28;20021;-80
2022/04/07 08:11:49;;;;;;;10.43;7.13;;;;;;;11.66;71.43;100410.03;5030942;28;20025;-80
2022/04/07 08:14:15;;;;;;;9.80;6.93;;;;;;;11.81;70.90;100429.91;5011623;28;20037;-79
2022/04/07 08:16:49;;;;;;;10.32;6.97;;;;;;;11.82;70.90;100423.84;5028074;28;20467;-81
2022/04/07 08:19:15;;;;;;;9.15;6.55;;;;;;;11.78;71.25;100428.88;4998752;28;20051;-79
2022/04/07 08:21:41;;;;;;;9.80;7.10;;;;;;;11.75;71.13;100408.72;5051114;28;20021;-80
2022/04/07 08:24:07;;;;;;;9.88;6.80;;;;;;;11.83;70.97;100409.03;5051880;28;20025;-77
2022/04/07 08:26:32;;;;;;;10.98;7.50;;;;;;;11.80;71.19;100396.72;5029857;28;20041;-81
2022/04/07 08:28:58;;;;;;;10.15;7.28;;;;;;;11.79;71.08;100408.03;5051293;28;20029;-79
2022/04/07 08:31:25;;;;;;;10.35;7.22;;;;;;;11.80;71.02;100382.75;5048610;28;20541;-80
2022/04/07 08:33:51;;;;;;;10.48;7.07;;;;;;;11.76;71.54;100391.31;5041691;28;20618;-80
2022/04/07 08:36:16;;;;;;;11.93;7.53;;;;;;;11.84;71.18;100389.03;5051161;28;20056;-80
2022/04/07 08:38:42;;;;;;;13.57;9.50;;;;;;;11.71;71.06;100364.06;5041256;28;20036;-80
2022/04/07 08:41:11;;;;;;;14.65;8.52;;;;;;;11.73;70.67;100358.06;5049258;28;20025;-80
2022/04/07 08:43:39;;;;;;;12.60;8.07;;;;;;;11.80;70.87;100369.69;5050593;28;20486;-79
2022/04/07 08:46:11;;;;;;;13.88;7.90;;;;;;;11.81;71.22;100346.22;5043069;28;20403;-80
2022/04/07 08:48:38;;;;;;;12.20;8.38;;;;;;;11.74;70.72;100328.44;5027468;28;20033;-79
2022/04/07 08:51:06;;;;;;;12.40;8.02;;;;;;;11.78;70.93;100347.78;5050665;28;20025;-80
2022/04/07 08:53:32;;;;;;;11.63;8.27;;;;;;;11.81;70.62;100329.63;5049459;28;20028;-80
2022/04/07 08:56:00;;;;;;;11.15;7.90;;;;;;;11.90;70.44;100342.22;5031402;28;20641;-80
2022/04/07 08:58:26;;;;;;;15.48;8.05;;;;;;;11.93;70.79;100345.84;5029567;28;20514;-80
2022/04/07 09:00:52;;;;;;;11.32;7.45;;;;;;;11.86;70.80;100320.22;5029576;28;20053;-80
2022/04/07 09:03:18;;;;;;;10.15;6.85;;;;;;;11.97;70.41;100318.09;5039036;28;20063;-80
2022/04/07 09:05:54;;;;;;;;;;;;;;;11.98;70.58;100317.25;5031043;28;20491;-80
2022/04/07 09:08:19;;;;;;;9.43;6.88;;;;;;;11.89;70.45;100302.06;5030399;28;19915;-80
2022/04/07 09:10:54;;;;;;;11.35;7.65;;;;;;;11.92;70.46;100289.13;5030169;28;20030;-80
2022/04/07 09:13:20;;;;;;;13.02;7.15;;;;;;;11.92;70.37;100278.66;5029798;28;20125;-80
2022/04/07 09:15:48;;;;;;;10.27;7.40;;;;;;;11.91;70.50;100274.25;5041510;28;20104;-79
2022/04/07 09:18:22;;;;;;;10.30;7.00;;;;;;;11.89;70.82;100295.94;5051116;28;20056;-81
2022/04/07 09:20:48;;;;;;;10.55;6.72;;;;;;;11.96;70.67;100266.59;5043330;28;20057;-80
2022/04/07 09:23:13;;;;;;;10.43;6.57;;;;;;;11.93;70.30;100249.03;5031211;28;20030;-80
2022/04/07 09:25:44;;;;;;;9.25;6.30;;;;;;;12.02;70.58;100261.59;5031051;28;20037;-80
2022/04/07 09:28:12;;;;;;;10.52;7.40;;;;;;;11.93;70.89;100241.19;5030961;28;20479;-80
2022/04/07 09:30:38;;;;;;;11.60;7.10;;;;;;;11.92;70.90;100226.34;5010714;28;20052;-80
2022/04/07 09:33:03;;;;;;;9.10;6.72;;;;;;;11.96;70.67;100214.28;5031220;28;20029;-80
2022/04/07 09:35:29;;;;;;;9.98;6.18;;;;;;;12.01;70.77;100205.75;5031382;28;20029;-80
2022/04/07 09:38:01;;;;;;;9.50;6.45;;;;;;;12.00;70.64;100203.97;5029755;28;20034;-80
2022/04/07 09:40:28;;;;;;;8.15;6.22;;;;;;;11.95;70.81;100157.53;5029916;28;20087;-79
2022/04/07 09:42:58;;;;;;;8.05;6.30;;;;;;;12.00;70.53;100150.72;5030974;28;20030;-80
2022/04/07 09:45:23;;;;;;;10.40;6.60;;;;;;;12.03;70.76;100150.88;5031177;28;20056;-80
2022/04/07 09:47:50;;;;;;;10.73;6.57;;;;;;;11.99;70.57;100126.31;5030291;28;20076;-81
2022/04/07 09:50:23;;;;;;;13.13;6.93;;;;;;;11.82;72.00;100123.00;5030962;28;20033;-80
2022/04/07 09:52:58;;;;;;;13.73;6.47;;;;;;;11.95;71.54;100126.13;5033538;28;20030;-80
2022/04/07 09:55:30;;;;;;;10.43;6.57;;;;;;;11.97;71.11;100130.59;5041163;28;20052;-80
2022/04/07 09:57:56;;;;;;;10.55;6.35;;;;;;;12.04;70.79;100129.09;5036398;28;20037;-80
2022/04/07 10:00:22;;;;;;;14.57;6.63;;;;;;;12.08;71.03;100136.22;5036501;28;20028;-80
2022/04/07 10:02:47;;;;;;;11.20;6.60;;;;;;;11.94;71.04;100111.28;5032715;28;20033;-80
2022/04/07 10:05:13;;;;;;;8.63;6.13;;;;;;;12.06;70.91;100129.16;5033387;28;20025;-80
2022/04/07 10:07:41;;;;;;;15.60;6.75;;;;;;;12.14;71.08;100130.34;5034386;28;20494;-80
2022/04/07 10:10:07;;;;;;;10.45;6.13;;;;;;;12.10;71.24;100128.44;5048422;28;20048;-79
2022/04/07 10:12:33;;;;;;;9.52;6.35;;;;;;;12.06;71.39;100129.16;5050589;28;20036;-80
2022/04/07 10:14:59;;;;;;;8.68;6.07;;;;;;;12.05;71.25;100112.56;5047583;28;20036;-80
2022/04/07 10:17:24;;;;;;;8.70;5.88;;;;;;;12.13;71.29;100103.28;5032827;28;20037;-80
2022/04/07 10:19:56;;;;;;;11.00;6.68;;;;;;;12.07;71.27;100082.13;5029454;28;20486;-80
2022/04/07 10:22:49;;;;;;;9.52;6.78;;;;;;;12.03;71.82;100088.06;5034792;28;20025;-80
2022/04/07 10:25:15;;;;;;;8.93;6.25;;;;;;;12.06;71.78;100085.53;5053169;28;20021;-80
2022/04/07 10:27:47;;;;;;;11.80;6.57;;;;;;;12.09;71.65;100072.59;5035047;28;20052;-80
2022/04/07 10:30:14;;;;;;;10.88;6.18;;;;;;;12.07;71.51;100057.69;5035196;28;20029;-80
2022/04/07 10:32:43;;;;;;;9.48;6.13;;;;;;;12.11;71.77;100049.09;5034452;28;20540;-80
2022/04/07 10:35:11;;;;;;;12.13;6.70;;;;;;;12.08;71.80;100039.38;5052915;28;20025;-80
2022/04/07 10:37:43;;;;;;;11.15;6.45;;;;;;;12.09;72.04;100050.78;5052970;28;20029;-80
2022/04/07 10:40:38;;;;;;;9.40;6.53;;;;;;;12.13;71.48;100035.22;5048348;28;20032;-80
2022/04/07 10:43:03;;;;;;;9.73;5.82;;;;;;;12.12;71.87;100046.53;5040802;28;20033;-80
2022/04/07 10:45:39;;;;;;;11.80;7.10;;;;;;;12.12;71.82;100041.28;5033706;28;20083;-80
2022/04/07 10:48:23;;;;;;;8.73;5.97;;;;;;;12.15;71.96;100035.25;5034024;28;20109;-81
2022/04/07 10:51:12;;;;;;;9.38;6.13;;;;;;;12.04;72.09;100020.91;5010239;28;20037;-77
2022/04/07 10:53:54;;;;;;;12.65;6.80;;;;;;;12.12;72.21;100040.41;5000512;28;20030;-79
2022/04/07 10:56:25;;;;;;;9.75;5.80;;;;;;;12.10;72.64;100029.88;5034339;28;20021;-78
2022/04/07 10:58:54;;;;;;;11.02;6.05;;;;;;;11.98;72.63;100005.88;5034924;28;20047;-80
2022/04/07 11:01:29;;;;;;;10.43;6.78;;;;;;;12.15;72.41;100011.72;5053393;28;20036;-80
2022/04/07 11:04:16;;;;;;;10.98;6.25;;;;;;;12.11;73.06;100000.25;5033859;28;20116;-80
2022/04/07 11:07:10;;;;;;;10.90;6.55;;;;;;;12.17;72.65;99994.34;5041541;28;20025;-81
2022/04/07 11:10:01;;;;;;;11.65;7.32;;;;;;;12.20;72.57;100000.56;5053034;28;20025;-80
2022/04/07 11:12:34;;;;;;;11.13;6.95;;;;;;;12.21;73.30;99993.59;5036496;28;20029;-80
2022/04/07 11:15:02;;;;;;;12.98;6.50;;;;;;;12.20;73.60;99994.47;5033487;28;20036;-80
2022/04/07 11:17:45;;;;;;;13.23;7.30;;;;;;;12.18;74.56;100003.97;5047256;28;20040;-80
2022/04/07 11:20:18;;;;;;;14.30;7.38;;;;;;;12.20;74.80;99991.84;5049019;28;20100;-80
2022/04/07 11:22:49;;;;;;;13.60;7.88;;;;;;;12.18;75.33;99978.69;5032841;28;20036;-80
2022/04/07 11:25:28;;;;;;;14.43;7.68;;;;;;;12.14;76.07;99968.06;5032943;28;20521;-80